Aeroporto :
LOGIN :

Iscrizione | Disclaimer

   EN    FR    IT 

 










Sommario :    VFR   VFR Marginale   IFR   IFR Intensivo   IFR Molto Intensivo
Visibilità : 
Base nubi : 
>= 8 km
>= 3000ft
5 / 8 km
1000 / 3000 ft
1500m / 5 km
500 / 1000 ft
800 / 1500m
200 / 500 ft
< 800m
< 200 ft
Simboli :   Temporali  Nebbia  Neve Forte  Precipitazioni Forti  Vento > 20 kt
SIGMETs :   Varie  Temporali  Ghiacco  Turbolenza  Onda orograficha  Ceneri Vulcaniche






- Altitudine del aeroporto : 116 ft
- Codice IATA : ISC


EGHE - Scilly Isles / St Mary's

ULTIMO METAR :
  • 211550Z 19014KT 9999 FEW016 SCT021 10/07 Q0992

METARs OBSOLETI :
  • 211520Z 19013KT 9999 FEW016 SCT012 10/06 Q0992
  • 211420Z 18013KT 9999 VCSH FEW012 FEW018CB 11/07 Q0992
  • 211350Z 17014KT 9999 VCSH FEW012 SCT019CB 10/08 Q0993
  • 211320Z 17014KT 9999 FEW015 11/07 Q0993
  • 211250Z 16015KT 9999 FEW015 12/08 Q0993

TAF TAF EGHE
Valido dal 21 a 15 ore il 21 a 17 ore UTC


211403Z 2115/2117 17012KT 9999 SCT020
PROB30
TEMPO 2115/2117 4000 +SHRA BKN012 BKN020CB



MetMap, La meteo Aeronautica in un colpo d'occhio ! - Copyright ORBIFLY Dicembre 2007 - Disclaimer

ORBIFLY MET'MAP TEAM :

Programmazione e sviluppo : Alexandra Zaïnal
Concezione e sviluppo : Baudouin d'Aumeries
Co-Programmazione e sviluppo : Marc-Olivier Méhu
Supporto tecnico e logistico : Manuel Goepfert
Aiuto per la traduzione : Arnaldo La Scala

Contatto : metmap@orbifly.com




FONTI E CREDITI :

   NOAA